sensor_id;sensor_type;location;lat;lon;timestamp;P1;durP1;ratioP1;P2;durP2;ratioP2
24813;SDS011;12904;50.088;11.414;2024-01-06T00:01:30;29.67;;;18.13;;
24813;SDS011;12904;50.088;11.414;2024-01-06T00:03:56;17.67;;;14.20;;
24813;SDS011;12904;50.088;11.414;2024-01-06T00:06:22;14.80;;;10.05;;
24813;SDS011;12904;50.088;11.414;2024-01-06T00:08:47;18.67;;;11.95;;
24813;SDS011;12904;50.088;11.414;2024-01-06T00:11:19;16.15;;;10.70;;
24813;SDS011;12904;50.088;11.414;2024-01-06T00:13:45;24.17;;;15.27;;
24813;SDS011;12904;50.088;11.414;2024-01-06T00:16:11;24.85;;;16.35;;
24813;SDS011;12904;50.088;11.414;2024-01-06T00:18:36;27.83;;;18.38;;
24813;SDS011;12904;50.088;11.414;2024-01-06T00:21:02;26.15;;;18.38;;
24813;SDS011;12904;50.088;11.414;2024-01-06T00:23:28;27.35;;;18.20;;
24813;SDS011;12904;50.088;11.414;2024-01-06T00:25:53;20.73;;;11.45;;
24813;SDS011;12904;50.088;11.414;2024-01-06T00:28:19;15.23;;;10.93;;
24813;SDS011;12904;50.088;11.414;2024-01-06T00:30:45;12.75;;;10.88;;
24813;SDS011;12904;50.088;11.414;2024-01-06T00:33:11;15.52;;;11.45;;
24813;SDS011;12904;50.088;11.414;2024-01-06T00:35:37;19.75;;;12.23;;
24813;SDS011;12904;50.088;11.414;2024-01-06T00:38:03;13.27;;;11.65;;
24813;SDS011;12904;50.088;11.414;2024-01-06T00:40:28;14.32;;;10.85;;
24813;SDS011;12904;50.088;11.414;2024-01-06T00:42:54;14.70;;;10.90;;
24813;SDS011;12904;50.088;11.414;2024-01-06T00:45:19;13.27;;;11.43;;
24813;SDS011;12904;50.088;11.414;2024-01-06T00:47:45;16.80;;;10.45;;
24813;SDS011;12904;50.088;11.414;2024-01-06T00:50:11;13.55;;;9.65;;
24813;SDS011;12904;50.088;11.414;2024-01-06T00:52:37;10.52;;;8.65;;
24813;SDS011;12904;50.088;11.414;2024-01-06T00:55:03;15.80;;;10.00;;
24813;SDS011;12904;50.088;11.414;2024-01-06T00:57:29;16.63;;;10.35;;
24813;SDS011;12904;50.088;11.414;2024-01-06T00:59:55;14.88;;;10.75;;
24813;SDS011;12904;50.088;11.414;2024-01-06T01:02:20;13.75;;;9.90;;
24813;SDS011;12904;50.088;11.414;2024-01-06T01:04:46;13.88;;;9.80;;
24813;SDS011;12904;50.088;11.414;2024-01-06T01:07:12;15.90;;;10.07;;
24813;SDS011;12904;50.088;11.414;2024-01-06T01:09:38;13.55;;;10.40;;
24813;SDS011;12904;50.088;11.414;2024-01-06T01:12:03;13.52;;;10.38;;
24813;SDS011;12904;50.088;11.414;2024-01-06T01:14:29;14.38;;;10.73;;
24813;SDS011;12904;50.088;11.414;2024-01-06T01:16:55;14.27;;;9.57;;
24813;SDS011;12904;50.088;11.414;2024-01-06T01:19:20;13.43;;;10.18;;
24813;SDS011;12904;50.088;11.414;2024-01-06T01:21:46;25.17;;;15.85;;
24813;SDS011;12904;50.088;11.414;2024-01-06T01:24:12;31.95;;;17.42;;
24813;SDS011;12904;50.088;11.414;2024-01-06T01:26:37;51.00;;;26.70;;
24813;SDS011;12904;50.088;11.414;2024-01-06T01:29:03;19.92;;;14.77;;
24813;SDS011;12904;50.088;11.414;2024-01-06T01:31:28;16.05;;;10.02;;
24813;SDS011;12904;50.088;11.414;2024-01-06T01:33:54;16.95;;;11.20;;
24813;SDS011;12904;50.088;11.414;2024-01-06T01:36:19;33.10;;;18.88;;
24813;SDS011;12904;50.088;11.414;2024-01-06T01:38:45;45.47;;;23.35;;
24813;SDS011;12904;50.088;11.414;2024-01-06T01:41:11;75.82;;;34.53;;
24813;SDS011;12904;50.088;11.414;2024-01-06T01:43:36;74.07;;;35.42;;
24813;SDS011;12904;50.088;11.414;2024-01-06T01:46:03;40.08;;;21.60;;
24813;SDS011;12904;50.088;11.414;2024-01-06T01:48:29;29.33;;;17.33;;
24813;SDS011;12904;50.088;11.414;2024-01-06T01:50:56;20.88;;;14.52;;
24813;SDS011;12904;50.088;11.414;2024-01-06T01:53:22;19.45;;;13.15;;
24813;SDS011;12904;50.088;11.414;2024-01-06T01:55:49;11.63;;;9.55;;
24813;SDS011;12904;50.088;11.414;2024-01-06T01:58:15;14.48;;;8.98;;
24813;SDS011;12904;50.088;11.414;2024-01-06T02:00:41;11.88;;;9.65;;
24813;SDS011;12904;50.088;11.414;2024-01-06T02:03:07;12.57;;;11.27;;
24813;SDS011;12904;50.088;11.414;2024-01-06T02:05:36;10.32;;;9.27;;
24813;SDS011;12904;50.088;11.414;2024-01-06T02:08:01;14.43;;;9.75;;
24813;SDS011;12904;50.088;11.414;2024-01-06T02:10:27;16.75;;;12.35;;
24813;SDS011;12904;50.088;11.414;2024-01-06T02:12:54;16.27;;;10.35;;
24813;SDS011;12904;50.088;11.414;2024-01-06T02:15:19;12.30;;;9.55;;
24813;SDS011;12904;50.088;11.414;2024-01-06T02:17:45;10.60;;;9.50;;
24813;SDS011;12904;50.088;11.414;2024-01-06T02:20:11;13.13;;;9.05;;
24813;SDS011;12904;50.088;11.414;2024-01-06T02:22:38;11.80;;;9.32;;
24813;SDS011;12904;50.088;11.414;2024-01-06T02:25:04;16.30;;;9.88;;
24813;SDS011;12904;50.088;11.414;2024-01-06T02:27:37;15.18;;;9.82;;
24813;SDS011;12904;50.088;11.414;2024-01-06T02:30:06;11.90;;;9.55;;
24813;SDS011;12904;50.088;11.414;2024-01-06T02:32:32;11.43;;;8.70;;
24813;SDS011;12904;50.088;11.414;2024-01-06T02:34:58;12.65;;;9.65;;
24813;SDS011;12904;50.088;11.414;2024-01-06T02:37:23;11.43;;;10.20;;
24813;SDS011;12904;50.088;11.414;2024-01-06T02:39:49;13.80;;;9.30;;
24813;SDS011;12904;50.088;11.414;2024-01-06T02:42:14;11.32;;;9.60;;
24813;SDS011;12904;50.088;11.414;2024-01-06T02:44:41;13.68;;;9.95;;
24813;SDS011;12904;50.088;11.414;2024-01-06T02:47:06;12.90;;;9.15;;
24813;SDS011;12904;50.088;11.414;2024-01-06T02:49:32;11.27;;;8.75;;
24813;SDS011;12904;50.088;11.414;2024-01-06T02:51:57;9.25;;;8.27;;
24813;SDS011;12904;50.088;11.414;2024-01-06T02:54:23;14.13;;;8.98;;
24813;SDS011;12904;50.088;11.414;2024-01-06T02:56:49;13.27;;;9.13;;
24813;SDS011;12904;50.088;11.414;2024-01-06T02:59:14;11.93;;;9.35;;
24813;SDS011;12904;50.088;11.414;2024-01-06T03:01:40;10.20;;;8.25;;
24813;SDS011;12904;50.088;11.414;2024-01-06T03:04:05;12.02;;;8.75;;
24813;SDS011;12904;50.088;11.414;2024-01-06T03:06:31;14.27;;;9.80;;
24813;SDS011;12904;50.088;11.414;2024-01-06T03:08:56;12.55;;;9.48;;
24813;SDS011;12904;50.088;11.414;2024-01-06T03:11:22;13.55;;;8.60;;
24813;SDS011;12904;50.088;11.414;2024-01-06T03:13:48;16.35;;;8.98;;
24813;SDS011;12904;50.088;11.414;2024-01-06T03:16:13;11.00;;;8.88;;
24813;SDS011;12904;50.088;11.414;2024-01-06T03:18:39;12.15;;;9.10;;
24813;SDS011;12904;50.088;11.414;2024-01-06T03:21:04;16.30;;;10.55;;
24813;SDS011;12904;50.088;11.414;2024-01-06T03:23:30;12.43;;;9.27;;
24813;SDS011;12904;50.088;11.414;2024-01-06T03:25:56;13.85;;;10.45;;
24813;SDS011;12904;50.088;11.414;2024-01-06T03:28:22;13.35;;;10.82;;
24813;SDS011;12904;50.088;11.414;2024-01-06T03:30:47;10.57;;;9.15;;
24813;SDS011;12904;50.088;11.414;2024-01-06T03:33:13;14.65;;;8.27;;
24813;SDS011;12904;50.088;11.414;2024-01-06T03:35:39;14.20;;;11.23;;
24813;SDS011;12904;50.088;11.414;2024-01-06T03:38:04;14.07;;;9.38;;
24813;SDS011;12904;50.088;11.414;2024-01-06T03:40:30;11.32;;;8.65;;
24813;SDS011;12904;50.088;11.414;2024-01-06T03:42:55;10.80;;;8.40;;
24813;SDS011;12904;50.088;11.414;2024-01-06T03:45:21;15.60;;;8.85;;
24813;SDS011;12904;50.088;11.414;2024-01-06T03:47:47;10.52;;;9.35;;
24813;SDS011;12904;50.088;11.414;2024-01-06T03:50:13;12.52;;;9.32;;
24813;SDS011;12904;50.088;11.414;2024-01-06T03:52:38;15.20;;;10.63;;
24813;SDS011;12904;50.088;11.414;2024-01-06T03:55:05;13.40;;;10.70;;
24813;SDS011;12904;50.088;11.414;2024-01-06T03:57:30;20.17;;;12.48;;
24813;SDS011;12904;50.088;11.414;2024-01-06T03:59:57;19.50;;;13.05;;
24813;SDS011;12904;50.088;11.414;2024-01-06T04:02:22;14.70;;;10.48;;
24813;SDS011;12904;50.088;11.414;2024-01-06T04:04:48;19.92;;;12.20;;
24813;SDS011;12904;50.088;11.414;2024-01-06T04:07:14;17.85;;;11.23;;
24813;SDS011;12904;50.088;11.414;2024-01-06T04:09:41;18.95;;;10.55;;
24813;SDS011;12904;50.088;11.414;2024-01-06T04:12:08;12.45;;;9.73;;
24813;SDS011;12904;50.088;11.414;2024-01-06T04:14:34;18.48;;;11.57;;
24813;SDS011;12904;50.088;11.414;2024-01-06T04:16:59;13.60;;;11.00;;
24813;SDS011;12904;50.088;11.414;2024-01-06T04:19:25;17.13;;;10.68;;
24813;SDS011;12904;50.088;11.414;2024-01-06T04:21:51;14.65;;;9.52;;
24813;SDS011;12904;50.088;11.414;2024-01-06T04:24:16;15.68;;;11.10;;
24813;SDS011;12904;50.088;11.414;2024-01-06T04:26:42;15.00;;;10.90;;
24813;SDS011;12904;50.088;11.414;2024-01-06T04:29:10;27.73;;;14.95;;
24813;SDS011;12904;50.088;11.414;2024-01-06T04:31:35;27.63;;;13.95;;
24813;SDS011;12904;50.088;11.414;2024-01-06T04:34:01;20.55;;;12.07;;
24813;SDS011;12904;50.088;11.414;2024-01-06T04:36:28;14.13;;;11.57;;
24813;SDS011;12904;50.088;11.414;2024-01-06T04:38:54;15.30;;;10.90;;
24813;SDS011;12904;50.088;11.414;2024-01-06T04:41:19;16.63;;;11.90;;
24813;SDS011;12904;50.088;11.414;2024-01-06T04:43:45;15.85;;;11.27;;
24813;SDS011;12904;50.088;11.414;2024-01-06T04:46:11;21.17;;;11.57;;
24813;SDS011;12904;50.088;11.414;2024-01-06T04:48:37;17.95;;;11.02;;
24813;SDS011;12904;50.088;11.414;2024-01-06T04:51:05;17.77;;;11.27;;
24813;SDS011;12904;50.088;11.414;2024-01-06T04:53:34;16.20;;;11.88;;
24813;SDS011;12904;50.088;11.414;2024-01-06T04:56:00;10.60;;;9.48;;
24813;SDS011;12904;50.088;11.414;2024-01-06T04:58:25;17.30;;;10.93;;
24813;SDS011;12904;50.088;11.414;2024-01-06T05:00:51;25.08;;;14.32;;
24813;SDS011;12904;50.088;11.414;2024-01-06T05:03:17;24.92;;;15.10;;
24813;SDS011;12904;50.088;11.414;2024-01-06T05:05:43;45.22;;;19.02;;
24813;SDS011;12904;50.088;11.414;2024-01-06T05:08:09;24.77;;;13.88;;
24813;SDS011;12904;50.088;11.414;2024-01-06T05:10:35;29.08;;;14.50;;
24813;SDS011;12904;50.088;11.414;2024-01-06T05:13:00;21.10;;;12.48;;
24813;SDS011;12904;50.088;11.414;2024-01-06T05:15:26;35.65;;;14.50;;
24813;SDS011;12904;50.088;11.414;2024-01-06T05:17:51;29.27;;;13.27;;
24813;SDS011;12904;50.088;11.414;2024-01-06T05:20:17;62.17;;;15.30;;
24813;SDS011;12904;50.088;11.414;2024-01-06T05:22:43;53.80;;;15.38;;
24813;SDS011;12904;50.088;11.414;2024-01-06T05:25:08;29.17;;;14.55;;
24813;SDS011;12904;50.088;11.414;2024-01-06T05:27:34;33.28;;;15.55;;
24813;SDS011;12904;50.088;11.414;2024-01-06T05:30:00;52.78;;;19.98;;
24813;SDS011;12904;50.088;11.414;2024-01-06T05:32:26;31.85;;;15.73;;
24813;SDS011;12904;50.088;11.414;2024-01-06T05:34:52;60.15;;;20.50;;
24813;SDS011;12904;50.088;11.414;2024-01-06T05:37:17;41.17;;;17.83;;
24813;SDS011;12904;50.088;11.414;2024-01-06T05:39:43;38.22;;;17.17;;
24813;SDS011;12904;50.088;11.414;2024-01-06T05:42:09;30.30;;;16.42;;
24813;SDS011;12904;50.088;11.414;2024-01-06T05:44:39;25.37;;;15.90;;
24813;SDS011;12904;50.088;11.414;2024-01-06T05:47:04;16.77;;;12.02;;
24813;SDS011;12904;50.088;11.414;2024-01-06T05:49:30;15.93;;;10.63;;
24813;SDS011;12904;50.088;11.414;2024-01-06T05:51:55;21.00;;;12.25;;
24813;SDS011;12904;50.088;11.414;2024-01-06T05:54:21;16.88;;;10.98;;
24813;SDS011;12904;50.088;11.414;2024-01-06T05:56:47;18.77;;;12.65;;
24813;SDS011;12904;50.088;11.414;2024-01-06T05:59:12;19.13;;;11.95;;
24813;SDS011;12904;50.088;11.414;2024-01-06T06:01:39;18.80;;;11.13;;
24813;SDS011;12904;50.088;11.414;2024-01-06T06:04:05;14.90;;;11.32;;
24813;SDS011;12904;50.088;11.414;2024-01-06T06:06:31;19.08;;;13.30;;
24813;SDS011;12904;50.088;11.414;2024-01-06T06:08:57;14.88;;;12.30;;
24813;SDS011;12904;50.088;11.414;2024-01-06T06:11:23;16.17;;;11.77;;
24813;SDS011;12904;50.088;11.414;2024-01-06T06:13:49;16.52;;;11.57;;
24813;SDS011;12904;50.088;11.414;2024-01-06T06:16:14;18.58;;;12.23;;
24813;SDS011;12904;50.088;11.414;2024-01-06T06:18:40;14.50;;;12.05;;
24813;SDS011;12904;50.088;11.414;2024-01-06T06:21:06;16.63;;;12.50;;
24813;SDS011;12904;50.088;11.414;2024-01-06T06:23:35;15.45;;;11.95;;
24813;SDS011;12904;50.088;11.414;2024-01-06T06:26:07;21.58;;;12.88;;
24813;SDS011;12904;50.088;11.414;2024-01-06T06:28:33;39.63;;;13.05;;
24813;SDS011;12904;50.088;11.414;2024-01-06T06:31:00;17.63;;;12.23;;
24813;SDS011;12904;50.088;11.414;2024-01-06T06:33:28;26.17;;;13.23;;
24813;SDS011;12904;50.088;11.414;2024-01-06T06:35:54;20.58;;;12.85;;
24813;SDS011;12904;50.088;11.414;2024-01-06T06:38:20;16.05;;;11.80;;
24813;SDS011;12904;50.088;11.414;2024-01-06T06:40:46;21.38;;;11.07;;
24813;SDS011;12904;50.088;11.414;2024-01-06T06:43:12;21.50;;;10.20;;
24813;SDS011;12904;50.088;11.414;2024-01-06T06:45:39;21.58;;;10.07;;
24813;SDS011;12904;50.088;11.414;2024-01-06T06:48:04;16.25;;;10.40;;
24813;SDS011;12904;50.088;11.414;2024-01-06T06:50:30;13.45;;;9.48;;
24813;SDS011;12904;50.088;11.414;2024-01-06T06:52:56;30.00;;;9.93;;
24813;SDS011;12904;50.088;11.414;2024-01-06T06:55:21;53.55;;;13.10;;
24813;SDS011;12904;50.088;11.414;2024-01-06T06:57:47;77.35;;;14.20;;
24813;SDS011;12904;50.088;11.414;2024-01-06T07:00:12;100.32;;;15.40;;
24813;SDS011;12904;50.088;11.414;2024-01-06T07:02:40;121.70;;;17.15;;
24813;SDS011;12904;50.088;11.414;2024-01-06T07:05:05;65.20;;;13.40;;
24813;SDS011;12904;50.088;11.414;2024-01-06T07:07:32;96.03;;;14.50;;
24813;SDS011;12904;50.088;11.414;2024-01-06T07:09:58;82.30;;;13.57;;
24813;SDS011;12904;50.088;11.414;2024-01-06T07:12:30;62.53;;;12.73;;
24813;SDS011;12904;50.088;11.414;2024-01-06T07:14:56;102.90;;;14.70;;
24813;SDS011;12904;50.088;11.414;2024-01-06T07:17:23;122.60;;;13.45;;
24813;SDS011;12904;50.088;11.414;2024-01-06T07:19:49;111.68;;;13.98;;
24813;SDS011;12904;50.088;11.414;2024-01-06T07:22:15;84.47;;;13.60;;
24813;SDS011;12904;50.088;11.414;2024-01-06T07:24:43;109.63;;;13.48;;
24813;SDS011;12904;50.088;11.414;2024-01-06T07:27:09;90.40;;;13.20;;
24813;SDS011;12904;50.088;11.414;2024-01-06T07:29:35;110.10;;;16.27;;
24813;SDS011;12904;50.088;11.414;2024-01-06T07:32:01;106.43;;;16.60;;
24813;SDS011;12904;50.088;11.414;2024-01-06T07:34:26;101.28;;;14.60;;
24813;SDS011;12904;50.088;11.414;2024-01-06T07:36:52;148.45;;;16.67;;
24813;SDS011;12904;50.088;11.414;2024-01-06T07:39:18;88.60;;;13.23;;
24813;SDS011;12904;50.088;11.414;2024-01-06T07:41:43;100.55;;;14.27;;
24813;SDS011;12904;50.088;11.414;2024-01-06T07:44:11;116.55;;;13.63;;
24813;SDS011;12904;50.088;11.414;2024-01-06T07:46:38;133.85;;;15.25;;
24813;SDS011;12904;50.088;11.414;2024-01-06T07:49:05;80.70;;;14.40;;
24813;SDS011;12904;50.088;11.414;2024-01-06T07:51:31;171.05;;;15.02;;
24813;SDS011;12904;50.088;11.414;2024-01-06T07:53:57;135.77;;;14.25;;
24813;SDS011;12904;50.088;11.414;2024-01-06T07:56:23;121.72;;;14.07;;
24813;SDS011;12904;50.088;11.414;2024-01-06T07:58:49;132.43;;;12.45;;
24813;SDS011;12904;50.088;11.414;2024-01-06T08:01:14;106.88;;;11.25;;
24813;SDS011;12904;50.088;11.414;2024-01-06T08:03:40;146.15;;;15.57;;
24813;SDS011;12904;50.088;11.414;2024-01-06T08:06:06;127.80;;;11.65;;
24813;SDS011;12904;50.088;11.414;2024-01-06T08:08:31;94.32;;;11.43;;
24813;SDS011;12904;50.088;11.414;2024-01-06T08:10:57;94.65;;;12.48;;
24813;SDS011;12904;50.088;11.414;2024-01-06T08:13:23;113.10;;;12.43;;
24813;SDS011;12904;50.088;11.414;2024-01-06T08:15:48;86.82;;;10.75;;
24813;SDS011;12904;50.088;11.414;2024-01-06T08:18:14;101.85;;;10.85;;
24813;SDS011;12904;50.088;11.414;2024-01-06T08:20:40;107.07;;;12.40;;
24813;SDS011;12904;50.088;11.414;2024-01-06T08:23:05;90.38;;;10.02;;
24813;SDS011;12904;50.088;11.414;2024-01-06T08:25:31;97.20;;;12.10;;
24813;SDS011;12904;50.088;11.414;2024-01-06T08:27:56;99.03;;;10.80;;
24813;SDS011;12904;50.088;11.414;2024-01-06T08:30:22;105.63;;;11.80;;
24813;SDS011;12904;50.088;11.414;2024-01-06T08:32:48;111.97;;;12.20;;
24813;SDS011;12904;50.088;11.414;2024-01-06T08:35:14;92.43;;;9.98;;
24813;SDS011;12904;50.088;11.414;2024-01-06T08:37:42;68.10;;;11.07;;
24813;SDS011;12904;50.088;11.414;2024-01-06T08:40:08;74.28;;;10.60;;
24813;SDS011;12904;50.088;11.414;2024-01-06T08:42:34;70.97;;;9.52;;
24813;SDS011;12904;50.088;11.414;2024-01-06T08:45:00;56.35;;;8.38;;
24813;SDS011;12904;50.088;11.414;2024-01-06T08:47:25;50.78;;;9.68;;
24813;SDS011;12904;50.088;11.414;2024-01-06T08:49:51;82.60;;;9.35;;
24813;SDS011;12904;50.088;11.414;2024-01-06T08:52:16;86.65;;;9.73;;
24813;SDS011;12904;50.088;11.414;2024-01-06T08:54:42;79.07;;;9.68;;
24813;SDS011;12904;50.088;11.414;2024-01-06T08:57:08;66.22;;;9.88;;
24813;SDS011;12904;50.088;11.414;2024-01-06T08:59:33;42.90;;;9.13;;
24813;SDS011;12904;50.088;11.414;2024-01-06T09:01:59;12.73;;;7.47;;
24813;SDS011;12904;50.088;11.414;2024-01-06T09:04:26;149.80;;;13.73;;
24813;SDS011;12904;50.088;11.414;2024-01-06T09:06:51;54.20;;;9.80;;
24813;SDS011;12904;50.088;11.414;2024-01-06T09:09:17;58.55;;;10.82;;
24813;SDS011;12904;50.088;11.414;2024-01-06T09:11:43;44.90;;;11.30;;
24813;SDS011;12904;50.088;11.414;2024-01-06T09:14:09;42.17;;;8.32;;
24813;SDS011;12904;50.088;11.414;2024-01-06T09:16:35;68.85;;;8.35;;
24813;SDS011;12904;50.088;11.414;2024-01-06T09:19:02;40.33;;;7.95;;
24813;SDS011;12904;50.088;11.414;2024-01-06T09:21:27;32.63;;;7.60;;
24813;SDS011;12904;50.088;11.414;2024-01-06T09:23:53;50.38;;;8.70;;
24813;SDS011;12904;50.088;11.414;2024-01-06T09:26:19;44.17;;;8.25;;
24813;SDS011;12904;50.088;11.414;2024-01-06T09:28:44;75.05;;;11.60;;
24813;SDS011;12904;50.088;11.414;2024-01-06T09:31:10;46.28;;;9.70;;
24813;SDS011;12904;50.088;11.414;2024-01-06T09:33:35;26.67;;;9.30;;
24813;SDS011;12904;50.088;11.414;2024-01-06T09:36:01;51.65;;;9.55;;
24813;SDS011;12904;50.088;11.414;2024-01-06T09:38:27;76.63;;;9.25;;
24813;SDS011;12904;50.088;11.414;2024-01-06T09:40:53;50.17;;;10.82;;
24813;SDS011;12904;50.088;11.414;2024-01-06T09:43:21;45.47;;;9.02;;
24813;SDS011;12904;50.088;11.414;2024-01-06T09:45:48;43.63;;;12.30;;
24813;SDS011;12904;50.088;11.414;2024-01-06T09:48:28;44.63;;;10.45;;
24813;SDS011;12904;50.088;11.414;2024-01-06T09:50:56;59.43;;;14.50;;
24813;SDS011;12904;50.088;11.414;2024-01-06T09:53:26;59.33;;;12.93;;
24813;SDS011;12904;50.088;11.414;2024-01-06T09:55:58;95.15;;;15.27;;
24813;SDS011;12904;50.088;11.414;2024-01-06T09:58:24;79.05;;;11.82;;
24813;SDS011;12904;50.088;11.414;2024-01-06T10:00:55;99.40;;;10.50;;
24813;SDS011;12904;50.088;11.414;2024-01-06T10:03:21;37.78;;;8.07;;
24813;SDS011;12904;50.088;11.414;2024-01-06T10:05:46;203.20;;;11.00;;
24813;SDS011;12904;50.088;11.414;2024-01-06T10:08:13;143.88;;;11.27;;
24813;SDS011;12904;50.088;11.414;2024-01-06T10:10:39;124.60;;;9.90;;
24813;SDS011;12904;50.088;11.414;2024-01-06T10:13:04;64.18;;;9.45;;
24813;SDS011;12904;50.088;11.414;2024-01-06T10:15:31;96.13;;;11.10;;
24813;SDS011;12904;50.088;11.414;2024-01-06T10:17:57;101.75;;;10.27;;
24813;SDS011;12904;50.088;11.414;2024-01-06T10:20:23;106.72;;;10.35;;
24813;SDS011;12904;50.088;11.414;2024-01-06T10:22:50;116.13;;;9.13;;
24813;SDS011;12904;50.088;11.414;2024-01-06T10:25:17;112.47;;;10.52;;
24813;SDS011;12904;50.088;11.414;2024-01-06T10:27:43;88.05;;;7.85;;
24813;SDS011;12904;50.088;11.414;2024-01-06T10:30:09;71.32;;;7.70;;
24813;SDS011;12904;50.088;11.414;2024-01-06T10:32:36;87.75;;;10.63;;
24813;SDS011;12904;50.088;11.414;2024-01-06T10:35:02;119.07;;;11.35;;
24813;SDS011;12904;50.088;11.414;2024-01-06T10:37:29;112.45;;;10.57;;
24813;SDS011;12904;50.088;11.414;2024-01-06T10:42:50;19.80;;;8.25;;
24813;SDS011;12904;50.088;11.414;2024-01-06T10:45:17;8.95;;;7.40;;
24813;SDS011;12904;50.088;11.414;2024-01-06T10:47:43;40.83;;;8.57;;
24813;SDS011;12904;50.088;11.414;2024-01-06T10:50:09;11.85;;;7.28;;
24813;SDS011;12904;50.088;11.414;2024-01-06T10:52:37;10.77;;;7.40;;
24813;SDS011;12904;50.088;11.414;2024-01-06T10:55:04;52.97;;;8.50;;
24813;SDS011;12904;50.088;11.414;2024-01-06T10:57:31;10.18;;;6.50;;
24813;SDS011;12904;50.088;11.414;2024-01-06T10:59:57;20.25;;;7.55;;
24813;SDS011;12904;50.088;11.414;2024-01-06T11:02:24;49.88;;;9.07;;
24813;SDS011;12904;50.088;11.414;2024-01-06T11:04:50;16.33;;;7.88;;
24813;SDS011;12904;50.088;11.414;2024-01-06T11:07:17;59.95;;;7.80;;
24813;SDS011;12904;50.088;11.414;2024-01-06T11:10:27;13.70;;;7.63;;
24813;SDS011;12904;50.088;11.414;2024-01-06T11:12:37;20.55;;;7.78;;
24813;SDS011;12904;50.088;11.414;2024-01-06T11:15:02;9.70;;;6.97;;
24813;SDS011;12904;50.088;11.414;2024-01-06T11:17:50;34.58;;;8.85;;
24813;SDS011;12904;50.088;11.414;2024-01-06T11:20:22;19.23;;;7.10;;
24813;SDS011;12904;50.088;11.414;2024-01-06T11:22:49;12.70;;;7.75;;
24813;SDS011;12904;50.088;11.414;2024-01-06T11:25:16;8.95;;;7.18;;
24813;SDS011;12904;50.088;11.414;2024-01-06T11:27:44;11.77;;;8.10;;
24813;SDS011;12904;50.088;11.414;2024-01-06T11:35:18;10.15;;;7.70;;
24813;SDS011;12904;50.088;11.414;2024-01-06T11:43:02;10.45;;;8.70;;
24813;SDS011;12904;50.088;11.414;2024-01-06T11:45:28;10.45;;;9.45;;
24813;SDS011;12904;50.088;11.414;2024-01-06T11:47:55;14.27;;;8.25;;
24813;SDS011;12904;50.088;11.414;2024-01-06T11:50:24;8.50;;;7.60;;
24813;SDS011;12904;50.088;11.414;2024-01-06T11:52:51;8.65;;;7.78;;
24813;SDS011;12904;50.088;11.414;2024-01-06T11:55:17;9.75;;;8.75;;
24813;SDS011;12904;50.088;11.414;2024-01-06T11:57:43;13.90;;;9.77;;
24813;SDS011;12904;50.088;11.414;2024-01-06T12:00:09;10.60;;;9.43;;
24813;SDS011;12904;50.088;11.414;2024-01-06T12:02:36;11.13;;;8.80;;
24813;SDS011;12904;50.088;11.414;2024-01-06T12:05:02;11.82;;;9.48;;
24813;SDS011;12904;50.088;11.414;2024-01-06T12:07:28;10.50;;;9.38;;
24813;SDS011;12904;50.088;11.414;2024-01-06T12:10:01;10.73;;;9.63;;
24813;SDS011;12904;50.088;11.414;2024-01-06T12:12:27;11.60;;;9.93;;
24813;SDS011;12904;50.088;11.414;2024-01-06T12:14:53;12.35;;;11.07;;
24813;SDS011;12904;50.088;11.414;2024-01-06T12:17:19;11.63;;;9.60;;
24813;SDS011;12904;50.088;11.414;2024-01-06T12:19:46;10.55;;;9.55;;
24813;SDS011;12904;50.088;11.414;2024-01-06T12:22:13;16.33;;;13.32;;
24813;SDS011;12904;50.088;11.414;2024-01-06T12:24:40;21.58;;;15.73;;
24813;SDS011;12904;50.088;11.414;2024-01-06T12:27:07;17.63;;;15.40;;
24813;SDS011;12904;50.088;11.414;2024-01-06T12:29:37;15.00;;;13.50;;
24813;SDS011;12904;50.088;11.414;2024-01-06T12:32:05;17.77;;;16.25;;
24813;SDS011;12904;50.088;11.414;2024-01-06T12:34:31;14.77;;;13.27;;
24813;SDS011;12904;50.088;11.414;2024-01-06T12:36:57;37.58;;;22.05;;
24813;SDS011;12904;50.088;11.414;2024-01-06T12:39:23;15.70;;;14.07;;
24813;SDS011;12904;50.088;11.414;2024-01-06T12:41:53;18.85;;;15.55;;
24813;SDS011;12904;50.088;11.414;2024-01-06T12:44:19;13.85;;;11.95;;
24813;SDS011;12904;50.088;11.414;2024-01-06T12:46:46;11.98;;;10.77;;
24813;SDS011;12904;50.088;11.414;2024-01-06T12:49:12;10.63;;;9.63;;
24813;SDS011;12904;50.088;11.414;2024-01-06T12:51:38;9.10;;;8.30;;
24813;SDS011;12904;50.088;11.414;2024-01-06T12:54:03;10.82;;;9.82;;
24813;SDS011;12904;50.088;11.414;2024-01-06T12:56:29;10.82;;;9.13;;
24813;SDS011;12904;50.088;11.414;2024-01-06T12:58:55;12.40;;;11.23;;
24813;SDS011;12904;50.088;11.414;2024-01-06T13:01:21;13.43;;;12.20;;
24813;SDS011;12904;50.088;11.414;2024-01-06T13:03:46;14.32;;;12.77;;
24813;SDS011;12904;50.088;11.414;2024-01-06T13:06:12;17.08;;;14.52;;
24813;SDS011;12904;50.088;11.414;2024-01-06T13:08:38;31.67;;;18.15;;
24813;SDS011;12904;50.088;11.414;2024-01-06T13:11:04;14.45;;;13.00;;
24813;SDS011;12904;50.088;11.414;2024-01-06T13:13:30;17.50;;;15.63;;
24813;SDS011;12904;50.088;11.414;2024-01-06T13:15:56;18.95;;;17.08;;
24813;SDS011;12904;50.088;11.414;2024-01-06T13:18:22;20.02;;;17.92;;
24813;SDS011;12904;50.088;11.414;2024-01-06T13:20:48;16.05;;;14.45;;
24813;SDS011;12904;50.088;11.414;2024-01-06T13:23:14;9.07;;;8.27;;
24813;SDS011;12904;50.088;11.414;2024-01-06T13:25:40;9.85;;;8.73;;
24813;SDS011;12904;50.088;11.414;2024-01-06T13:28:06;10.75;;;9.68;;
24813;SDS011;12904;50.088;11.414;2024-01-06T13:30:32;10.77;;;9.68;;
24813;SDS011;12904;50.088;11.414;2024-01-06T13:32:58;15.25;;;10.75;;
24813;SDS011;12904;50.088;11.414;2024-01-06T13:35:25;10.20;;;8.80;;
24813;SDS011;12904;50.088;11.414;2024-01-06T13:37:54;17.83;;;9.88;;
24813;SDS011;12904;50.088;11.414;2024-01-06T13:40:21;10.68;;;9.32;;
24813;SDS011;12904;50.088;11.414;2024-01-06T13:42:47;14.93;;;11.77;;
24813;SDS011;12904;50.088;11.414;2024-01-06T13:45:17;12.85;;;10.40;;
24813;SDS011;12904;50.088;11.414;2024-01-06T13:47:43;9.45;;;7.95;;
24813;SDS011;12904;50.088;11.414;2024-01-06T13:50:12;8.20;;;6.68;;
24813;SDS011;12904;50.088;11.414;2024-01-06T13:52:41;9.38;;;8.02;;
24813;SDS011;12904;50.088;11.414;2024-01-06T13:55:08;8.88;;;8.00;;
24813;SDS011;12904;50.088;11.414;2024-01-06T13:57:35;9.30;;;8.02;;
24813;SDS011;12904;50.088;11.414;2024-01-06T14:00:06;8.82;;;7.38;;
24813;SDS011;12904;50.088;11.414;2024-01-06T14:02:36;10.10;;;7.47;;
24813;SDS011;12904;50.088;11.414;2024-01-06T14:05:03;6.65;;;5.95;;
24813;SDS011;12904;50.088;11.414;2024-01-06T14:07:29;9.65;;;7.82;;
24813;SDS011;12904;50.088;11.414;2024-01-06T14:09:55;7.25;;;6.53;;
24813;SDS011;12904;50.088;11.414;2024-01-06T14:12:21;12.07;;;8.63;;
24813;SDS011;12904;50.088;11.414;2024-01-06T14:14:47;11.07;;;9.98;;
24813;SDS011;12904;50.088;11.414;2024-01-06T14:17:12;13.23;;;9.05;;
24813;SDS011;12904;50.088;11.414;2024-01-06T14:19:38;12.80;;;9.45;;
24813;SDS011;12904;50.088;11.414;2024-01-06T14:22:03;9.38;;;7.78;;